General Aviation Weather

Text Reports

Enter one or more of the following location identifiers separated by a space:

Zip Code, Four-Character ICAO or Three-Character IATA airport codes.

METAR - Aviation Routine Weather Report
KLBL - Liberal, Kansas
Updated at 10:15 AM GMT on December 28, 2014 (4:15 AM CST):
METAR KLBL 281015Z AUTO 19008KT 10SM CLR M09/M13 A3014 RMK AO1
TAF - Terminal Area Forecast
KLBL - Liberal, Kansas
Updated at 10:15 AM GMT on December 28, 2014 (4:15 AM CST):
No TAF is currently available for this location.
Decoded:
No decoded TAF is available.
PIREP - Pilot Weather Report
KLBL - Liberal, Kansas
Updated at 10:15 AM GMT on December 28, 2014 (4:15 AM CST):
No PIREP is currently available for this location.
AIRMET - Airmens Meteorological Information
KLBL - Liberal, Kansas
Updated at 10:15 AM GMT on December 28, 2014 (4:15 AM CST):
No AIRMET is currently available for this location.
SIGMET - Significant Meteorological Information
KLBL - Liberal, Kansas
Updated at 10:15 AM GMT on December 28, 2014 (4:15 AM CST):
No SIGMET is currently available for this location.
NOTAM - Notice to Airmen
KLBL - Liberal, Kansas
Updated at 10:15 AM GMT on December 28, 2014 (4:15 AM CST):
No NOTAM is currently available for this location.
Forecast Area
KLBL - Liberal, Kansas
Updated at 10:15 AM GMT on December 28, 2014 (4:15 AM CST):
No NOTAM is currently available for this location.
Aviation Weather Maps